• Join FlightAware (Why Join?)
  • Login
  • US Flag 
05:49PM EDT


 

Airport Tracker/Info


-or-


 

Live Flight TrackerFlight Track Log ✈ GLA164 ✈ 01-May-2012 ✈ KPGA - KDEN

Flight Track Log - Related Links

Times and Time Zones

All times are in EDT time to prevent confusion due to time zone crossing. See the GLA164 flight status page for this flight to view local times or setup timezone preferences in your user account.

Time Position Orientation Groundspeed Altitude Reporting Facility
EDT Latitude Longitude Course Direction KTS MPH feet Rate Location/Type
03:52PM 36.9472 -111.3564 56° Northeast 246 283 8,100  Level Denver Center
03:53PM 36.9811 -111.2936 63° Northeast 223 257 9,800 1,500 Climbing Denver Center
03:54PM 37.0114 -111.2178 65° Northeast 218 251 11,200 1,560 Climbing Denver Center
03:55PM 37.0419 -111.1339 67° East 229 264 13,000 1,800 Climbing Denver Center
03:56PM 37.0681 -111.0575 67° East 234 269 14,800 1,440 Climbing Denver Center
03:57PM 37.0964 -110.9736 68° East 239 275 15,900 1,200 Climbing Denver Center
03:58PM 37.1247 -110.8867 68° East 257 296 17,300 1,320 Climbing Denver Center
03:59PM 37.1531 -110.8000 64° Northeast 257 296 18,600 1,200 Climbing Denver Center
04:00PM 37.1856 -110.7158 69° East 267 307 19,700 1,260 Climbing Denver Center
04:01PM 37.2117 -110.6314 67° East 267 307 21,200 1,200 Climbing Denver Center
04:02PM 37.2372 -110.5572 68° East 267 307 22,100 900 Climbing Denver Center
04:03PM 37.2653 -110.4703 66° East 267 307 23,100 900 Climbing Denver Center
04:04PM 37.2956 -110.3831 70° East 267 307 23,900 780 Climbing Denver Center
04:05PM 37.3214 -110.2931 66° East 267 307 24,700 540 Climbing Denver Center
04:06PM 37.3536 -110.2036 63° Northeast 267 307 25,000 120 Climbing Denver Center
04:07PM 37.3967 -110.0961 68° East 292 336 25,000  Level Denver Center
04:08PM 37.4292 -109.9958 65° Northeast 307 353 25,000  Level Denver Center
04:09PM 37.4656 -109.8956 67° East 307 353 25,000  Level Denver Center
04:10PM 37.4953 -109.8081 63° Northeast 307 353 25,000  Level Denver Center
04:11PM 37.5378 -109.7025 65° Northeast 302 348 25,000  Level Denver Center
04:12PM 37.5739 -109.6047 63° Northeast 307 353 25,000  Level Denver Center
04:13PM 37.6142 -109.5069 63° Northeast 307 353 25,000 -60 Level Denver Center
04:14PM 37.6478 -109.4219 68° East 307 353 24,900  Descending Denver Center
04:15PM 37.6839 -109.3081 67° East 307 353 25,000  Climbing Denver Center
04:16PM 37.7178 -109.2069 67° East 314 361 25,000  Level Denver Center
04:17PM 37.7514 -109.1058 65° Northeast 307 353 25,000  Level Denver Center
04:18PM 37.7847 -109.0150 68° East 307 353 25,000  Level Denver Center
04:19PM 37.8206 -108.9033 68° East 312 359 25,000  Level Denver Center
04:20PM 37.8539 -108.7994 66° East 312 359 25,000  Level Denver Center
04:21PM 37.8892 -108.7006 65° Northeast 307 353 25,000  Level Denver Center
04:22PM 37.9222 -108.6094 66° East 312 359 25,000  Level Denver Center
04:23PM 37.9619 -108.4975 69° East 312 359 25,000  Level Denver Center
04:24PM 37.9950 -108.3906 65° Northeast 317 365 25,000  Level Denver Center
04:25PM 38.0319 -108.2914 65° Northeast 317 365 25,000  Level Denver Center
04:26PM 38.0647 -108.2000 67° East 311 358 25,000  Level Denver Center
04:27PM 38.0997 -108.0925 69° East 306 352 25,000  Level Denver Center
04:28PM 38.1281 -107.9983 67° East 311 358 25,000  Level Denver Center
04:29PM 38.1628 -107.8961 66° East 311 358 25,000  Level Denver Center
04:30PM 38.2039 -107.7806 68° East 316 364 25,000  Level Denver Center
04:31PM 38.2361 -107.6808 65° Northeast 311 358 25,000  Level Denver Center
04:32PM 38.2706 -107.5861 65° Northeast 318 366 25,000  Level Denver Center
04:33PM 38.3111 -107.4758 68° East 318 366 25,000  Level Denver Center
04:34PM 38.3433 -107.3731 68° East 313 360 25,000  Level Denver Center
04:35PM 38.3775 -107.2675 64° Northeast 313 360 25,000  Level Denver Center
04:36PM 38.4133 -107.1753 69° East 313 360 25,000  Level Denver Center
04:37PM 38.4475 -107.0589 64° Northeast 318 366 25,000  Level Denver Center
04:38PM 38.4875 -106.9531 65° Northeast 313 360 25,000 -60 Level Denver Center
04:39PM 38.5233 -106.8525 64° Northeast 313 360 24,900  Descending Denver Center
04:40PM 38.5569 -106.7625 62° Northeast 313 360 25,000  Climbing Denver Center
04:41PM 38.6031 -106.6511 64° Northeast 308 354 25,000  Level Denver Center
04:42PM 38.6408 -106.5528 66° East 320 368 25,000  Level Denver Center
04:43PM 38.6719 -106.4625 66° East 314 361 25,000  Level Denver Center
04:44PM 38.7075 -106.3586 67° East 321 369 25,000  Level Denver Center
04:45PM 38.7447 -106.2469 61° Northeast 310 357 25,000  Level Denver Center
04:46PM 38.7842 -106.1561 61° Northeast 310 357 25,000  Level Denver Center
04:47PM 38.8278 -106.0547 56° Northeast 317 365 25,000 -480 Level Denver Center
04:48PM 38.8775 -105.9611 56° Northeast 317 365 24,100 -1,020 Descending Denver Center
04:49PM 38.9311 -105.8592 49° Northeast 322 371 23,000 -1,380 Descending Denver Center
04:50PM 38.9808 -105.7867 52° Northeast 306 352 21,400 -1,440 Descending Denver Center
04:51PM 39.0322 -105.7008 51° Northeast 296 341 20,200 -1,500 Descending Denver Center
04:52PM 39.0881 -105.6119 52° Northeast 296 341 18,400 -1,920 Descending Denver Center
04:53PM 39.1353 -105.5336 51° Northeast 282 325 16,400 -1,200 Descending Denver Center
04:54PM 39.1825 -105.4581 51° Northeast 276 318 16,000 -420 Descending Denver Center
04:55PM 39.2300 -105.3822 49° Northeast 270 311 15,600 -540 Descending Denver Center
04:56PM 39.2731 -105.3172 52° Northeast 265 305 15,000 -780 Descending Denver Center
04:57PM 39.3161 -105.2467 51° Northeast 259 298 14,100 -1,020 Descending Denver Center
04:58PM 39.3572 -105.1817 52° Northeast 238 274 13,000 -600 Descending Denver Center
04:59PM 39.4000 -105.1108 54° Northeast 238 274 13,000  Level Denver Center
05:00PM 39.4408 -105.0375 68° East 243 280 13,000  Level Denver Center
05:01PM 39.4689 -104.9481 62° Northeast 256 295 13,000 -120 Level Denver Center
05:02PM 39.5072 -104.8531 53° Northeast 268 308 12,800 -1,020 Descending Denver Center
05:03PM 39.5519 -104.7767 28° Northeast 267 307 11,000 -1,440 Descending Denver Center
05:04PM 39.6078 -104.7375 31° Northeast 242 278 10,000 -1,140 Descending Denver Center
05:05PM 39.6572 -104.6986 13° North 207 238 8,800 -1,140 Descending Denver Center
05:08PM 39.7667 -104.6667 360° North 171 197 6,600 -960 Descending Denver TRACON
05:09PM 39.8000 -104.6667 360° North 144 166 5,900 -720 Descending Denver TRACON